sensor_id;sensor_type;location;lat;lon;timestamp;P1;durP1;ratioP1;P2;durP2;ratioP2
9496;SDS011;4786;51.270;4.456;2023-06-14T00:00:31;8.32;;;5.63;;
9496;SDS011;4786;51.270;4.456;2023-06-14T00:02:57;7.20;;;5.30;;
9496;SDS011;4786;51.270;4.456;2023-06-14T00:05:23;12.07;;;6.32;;
9496;SDS011;4786;51.270;4.456;2023-06-14T00:07:49;6.10;;;5.50;;
9496;SDS011;4786;51.270;4.456;2023-06-14T00:10:18;8.60;;;6.18;;
9496;SDS011;4786;51.270;4.456;2023-06-14T00:12:44;7.20;;;5.30;;
9496;SDS011;4786;51.270;4.456;2023-06-14T00:15:10;6.93;;;5.80;;
9496;SDS011;4786;51.270;4.456;2023-06-14T00:17:36;8.95;;;5.63;;
9496;SDS011;4786;51.270;4.456;2023-06-14T00:20:04;7.20;;;5.45;;
9496;SDS011;4786;51.270;4.456;2023-06-14T00:22:33;7.13;;;5.82;;
9496;SDS011;4786;51.270;4.456;2023-06-14T00:24:59;6.43;;;5.50;;
9496;SDS011;4786;51.270;4.456;2023-06-14T00:27:25;6.07;;;5.47;;
9496;SDS011;4786;51.270;4.456;2023-06-14T00:29:51;6.25;;;5.65;;
9496;SDS011;4786;51.270;4.456;2023-06-14T00:32:18;6.63;;;5.53;;
9496;SDS011;4786;51.270;4.456;2023-06-14T00:34:44;7.00;;;5.57;;
9496;SDS011;4786;51.270;4.456;2023-06-14T00:37:09;8.27;;;5.32;;
9496;SDS011;4786;51.270;4.456;2023-06-14T00:39:35;6.47;;;5.82;;
9496;SDS011;4786;51.270;4.456;2023-06-14T00:42:01;7.35;;;5.28;;
9496;SDS011;4786;51.270;4.456;2023-06-14T00:44:27;5.78;;;5.10;;
9496;SDS011;4786;51.270;4.456;2023-06-14T00:46:53;5.87;;;5.30;;
9496;SDS011;4786;51.270;4.456;2023-06-14T00:49:19;6.23;;;5.60;;
9496;SDS011;4786;51.270;4.456;2023-06-14T00:51:46;8.27;;;5.80;;
9496;SDS011;4786;51.270;4.456;2023-06-14T00:54:11;7.23;;;5.47;;
9496;SDS011;4786;51.270;4.456;2023-06-14T00:56:37;6.73;;;5.63;;
9496;SDS011;4786;51.270;4.456;2023-06-14T00:59:04;10.13;;;5.57;;
9496;SDS011;4786;51.270;4.456;2023-06-14T01:01:31;7.35;;;5.10;;
9496;SDS011;4786;51.270;4.456;2023-06-14T01:04:00;6.33;;;5.43;;
9496;SDS011;4786;51.270;4.456;2023-06-14T01:09:22;6.80;;;5.37;;
9496;SDS011;4786;51.270;4.456;2023-06-14T01:15:00;8.77;;;5.70;;
9496;SDS011;4786;51.270;4.456;2023-06-14T01:17:27;8.37;;;4.90;;
9496;SDS011;4786;51.270;4.456;2023-06-14T01:19:56;9.30;;;5.20;;
9496;SDS011;4786;51.270;4.456;2023-06-14T01:22:34;5.17;;;4.70;;
9496;SDS011;4786;51.270;4.456;2023-06-14T01:25:01;7.73;;;5.73;;
9496;SDS011;4786;51.270;4.456;2023-06-14T01:27:27;7.63;;;5.10;;
9496;SDS011;4786;51.270;4.456;2023-06-14T01:29:57;7.47;;;5.20;;
9496;SDS011;4786;51.270;4.456;2023-06-14T01:32:26;7.27;;;5.10;;
9496;SDS011;4786;51.270;4.456;2023-06-14T01:34:53;9.47;;;5.40;;
9496;SDS011;4786;51.270;4.456;2023-06-14T01:37:20;9.83;;;6.20;;
9496;SDS011;4786;51.270;4.456;2023-06-14T01:39:48;7.13;;;4.87;;
9496;SDS011;4786;51.270;4.456;2023-06-14T01:42:34;11.47;;;5.43;;
9496;SDS011;4786;51.270;4.456;2023-06-14T01:45:04;7.10;;;5.30;;
9496;SDS011;4786;51.270;4.456;2023-06-14T01:47:33;6.43;;;5.17;;
9496;SDS011;4786;51.270;4.456;2023-06-14T01:50:01;5.50;;;4.90;;
9496;SDS011;4786;51.270;4.456;2023-06-14T01:52:28;6.17;;;5.23;;
9496;SDS011;4786;51.270;4.456;2023-06-14T01:54:54;6.50;;;5.33;;
9496;SDS011;4786;51.270;4.456;2023-06-14T01:57:20;5.53;;;4.57;;
9496;SDS011;4786;51.270;4.456;2023-06-14T01:59:48;5.57;;;4.80;;
9496;SDS011;4786;51.270;4.456;2023-06-14T02:02:14;9.13;;;5.30;;
9496;SDS011;4786;51.270;4.456;2023-06-14T02:04:41;5.83;;;5.10;;
9496;SDS011;4786;51.270;4.456;2023-06-14T02:07:07;11.00;;;5.77;;
9496;SDS011;4786;51.270;4.456;2023-06-14T02:09:33;5.20;;;4.70;;
9496;SDS011;4786;51.270;4.456;2023-06-14T02:12:00;5.57;;;4.47;;
9496;SDS011;4786;51.270;4.456;2023-06-14T02:14:27;10.13;;;5.10;;
9496;SDS011;4786;51.270;4.456;2023-06-14T02:16:53;5.83;;;5.03;;
9496;SDS011;4786;51.270;4.456;2023-06-14T02:19:19;7.67;;;5.60;;
9496;SDS011;4786;51.270;4.456;2023-06-14T02:21:46;6.00;;;4.30;;
9496;SDS011;4786;51.270;4.456;2023-06-14T02:24:12;9.83;;;5.30;;
9496;SDS011;4786;51.270;4.456;2023-06-14T02:26:39;7.27;;;4.77;;
9496;SDS011;4786;51.270;4.456;2023-06-14T02:29:06;6.13;;;5.00;;
9496;SDS011;4786;51.270;4.456;2023-06-14T02:31:35;4.93;;;4.47;;
9496;SDS011;4786;51.270;4.456;2023-06-14T02:34:01;5.70;;;4.83;;
9496;SDS011;4786;51.270;4.456;2023-06-14T02:36:26;5.93;;;4.90;;
9496;SDS011;4786;51.270;4.456;2023-06-14T02:38:54;7.03;;;4.30;;
9496;SDS011;4786;51.270;4.456;2023-06-14T02:41:22;6.13;;;4.80;;
9496;SDS011;4786;51.270;4.456;2023-06-14T02:43:51;5.47;;;4.73;;
9496;SDS011;4786;51.270;4.456;2023-06-14T02:46:17;5.83;;;5.00;;
9496;SDS011;4786;51.270;4.456;2023-06-14T02:48:43;4.93;;;4.43;;
9496;SDS011;4786;51.270;4.456;2023-06-14T02:51:10;6.53;;;4.73;;
9496;SDS011;4786;51.270;4.456;2023-06-14T02:53:36;9.93;;;4.70;;
9496;SDS011;4786;51.270;4.456;2023-06-14T02:56:02;5.23;;;4.77;;
9496;SDS011;4786;51.270;4.456;2023-06-14T02:58:31;8.17;;;5.07;;
9496;SDS011;4786;51.270;4.456;2023-06-14T03:00:56;6.23;;;4.90;;
9496;SDS011;4786;51.270;4.456;2023-06-14T03:03:28;5.53;;;5.00;;
9496;SDS011;4786;51.270;4.456;2023-06-14T03:05:55;5.77;;;4.53;;
9496;SDS011;4786;51.270;4.456;2023-06-14T03:08:21;5.10;;;4.60;;
9496;SDS011;4786;51.270;4.456;2023-06-14T03:10:52;5.03;;;4.40;;
9496;SDS011;4786;51.270;4.456;2023-06-14T03:13:18;6.90;;;4.73;;
9496;SDS011;4786;51.270;4.456;2023-06-14T03:15:47;5.47;;;4.60;;
9496;SDS011;4786;51.270;4.456;2023-06-14T03:18:15;5.20;;;4.70;;
9496;SDS011;4786;51.270;4.456;2023-06-14T03:20:41;5.30;;;4.80;;
9496;SDS011;4786;51.270;4.456;2023-06-14T03:23:10;5.00;;;4.50;;
9496;SDS011;4786;51.270;4.456;2023-06-14T03:25:36;5.83;;;4.80;;
9496;SDS011;4786;51.270;4.456;2023-06-14T03:28:03;6.20;;;4.43;;
9496;SDS011;4786;51.270;4.456;2023-06-14T03:30:30;6.80;;;4.37;;
9496;SDS011;4786;51.270;4.456;2023-06-14T03:32:56;6.23;;;5.13;;
9496;SDS011;4786;51.270;4.456;2023-06-14T03:35:23;7.30;;;4.83;;
9496;SDS011;4786;51.270;4.456;2023-06-14T03:37:49;7.23;;;5.20;;
9496;SDS011;4786;51.270;4.456;2023-06-14T03:40:15;8.43;;;4.77;;
9496;SDS011;4786;51.270;4.456;2023-06-14T03:42:43;7.57;;;4.80;;
9496;SDS011;4786;51.270;4.456;2023-06-14T03:45:09;9.87;;;4.93;;
9496;SDS011;4786;51.270;4.456;2023-06-14T03:47:35;12.63;;;5.17;;
9496;SDS011;4786;51.270;4.456;2023-06-14T03:50:04;8.63;;;4.57;;
9496;SDS011;4786;51.270;4.456;2023-06-14T03:52:31;6.27;;;4.70;;
9496;SDS011;4786;51.270;4.456;2023-06-14T03:54:57;5.50;;;4.80;;
9496;SDS011;4786;51.270;4.456;2023-06-14T03:57:25;5.23;;;4.33;;
9496;SDS011;4786;51.270;4.456;2023-06-14T03:59:51;7.83;;;4.60;;
9496;SDS011;4786;51.270;4.456;2023-06-14T04:02:17;8.10;;;4.97;;
9496;SDS011;4786;51.270;4.456;2023-06-14T04:04:44;6.60;;;4.93;;
9496;SDS011;4786;51.270;4.456;2023-06-14T04:07:11;6.83;;;4.80;;
9496;SDS011;4786;51.270;4.456;2023-06-14T04:09:38;6.17;;;5.37;;
9496;SDS011;4786;51.270;4.456;2023-06-14T04:12:05;5.27;;;4.70;;
9496;SDS011;4786;51.270;4.456;2023-06-14T04:14:33;5.40;;;4.83;;
9496;SDS011;4786;51.270;4.456;2023-06-14T04:17:00;7.13;;;4.20;;
9496;SDS011;4786;51.270;4.456;2023-06-14T04:19:26;5.37;;;4.80;;
9496;SDS011;4786;51.270;4.456;2023-06-14T04:21:52;8.03;;;5.57;;
9496;SDS011;4786;51.270;4.456;2023-06-14T04:24:18;5.87;;;5.13;;
9496;SDS011;4786;51.270;4.456;2023-06-14T04:26:44;6.67;;;4.53;;
9496;SDS011;4786;51.270;4.456;2023-06-14T04:29:10;6.17;;;5.20;;
9496;SDS011;4786;51.270;4.456;2023-06-14T04:31:42;6.07;;;4.90;;
9496;SDS011;4786;51.270;4.456;2023-06-14T04:34:09;4.97;;;4.50;;
9496;SDS011;4786;51.270;4.456;2023-06-14T04:36:41;10.67;;;4.80;;
9496;SDS011;4786;51.270;4.456;2023-06-14T04:39:21;6.57;;;4.70;;
9496;SDS011;4786;51.270;4.456;2023-06-14T04:41:47;6.37;;;4.73;;
9496;SDS011;4786;51.270;4.456;2023-06-14T04:44:17;9.97;;;4.80;;
9496;SDS011;4786;51.270;4.456;2023-06-14T04:46:44;6.33;;;4.90;;
9496;SDS011;4786;51.270;4.456;2023-06-14T04:49:14;6.63;;;4.57;;
9496;SDS011;4786;51.270;4.456;2023-06-14T04:51:40;5.30;;;4.13;;
9496;SDS011;4786;51.270;4.456;2023-06-14T04:54:07;6.97;;;5.03;;
9496;SDS011;4786;51.270;4.456;2023-06-14T04:56:35;7.47;;;4.93;;
9496;SDS011;4786;51.270;4.456;2023-06-14T04:59:02;8.27;;;5.03;;
9496;SDS011;4786;51.270;4.456;2023-06-14T05:01:32;7.33;;;5.47;;
9496;SDS011;4786;51.270;4.456;2023-06-14T05:03:59;8.80;;;5.83;;
9496;SDS011;4786;51.270;4.456;2023-06-14T05:06:25;7.03;;;5.03;;
9496;SDS011;4786;51.270;4.456;2023-06-14T05:08:52;7.03;;;4.90;;
9496;SDS011;4786;51.270;4.456;2023-06-14T05:11:18;6.30;;;4.93;;
9496;SDS011;4786;51.270;4.456;2023-06-14T05:13:44;8.90;;;5.50;;
9496;SDS011;4786;51.270;4.456;2023-06-14T05:16:13;8.60;;;5.37;;
9496;SDS011;4786;51.270;4.456;2023-06-14T05:18:40;7.60;;;4.90;;
9496;SDS011;4786;51.270;4.456;2023-06-14T05:21:06;10.65;;;5.80;;
9496;SDS011;4786;51.270;4.456;2023-06-14T05:23:32;6.22;;;5.50;;
9496;SDS011;4786;51.270;4.456;2023-06-14T05:25:57;8.25;;;5.30;;
9496;SDS011;4786;51.270;4.456;2023-06-14T05:28:23;9.57;;;5.10;;
9496;SDS011;4786;51.270;4.456;2023-06-14T05:30:49;10.07;;;5.60;;
9496;SDS011;4786;51.270;4.456;2023-06-14T05:33:16;7.55;;;4.95;;
9496;SDS011;4786;51.270;4.456;2023-06-14T05:35:42;6.70;;;5.13;;
9496;SDS011;4786;51.270;4.456;2023-06-14T05:38:08;7.72;;;5.30;;
9496;SDS011;4786;51.270;4.456;2023-06-14T05:40:34;8.57;;;5.57;;
9496;SDS011;4786;51.270;4.456;2023-06-14T05:43:00;5.57;;;4.50;;
9496;SDS011;4786;51.270;4.456;2023-06-14T05:45:25;6.03;;;5.07;;
9496;SDS011;4786;51.270;4.456;2023-06-14T05:47:52;8.95;;;4.78;;
9496;SDS011;4786;51.270;4.456;2023-06-14T05:50:19;5.00;;;4.50;;
9496;SDS011;4786;51.270;4.456;2023-06-14T05:52:45;9.20;;;5.28;;
9496;SDS011;4786;51.270;4.456;2023-06-14T05:55:11;9.13;;;4.90;;
9496;SDS011;4786;51.270;4.456;2023-06-14T05:57:37;5.00;;;4.60;;
9496;SDS011;4786;51.270;4.456;2023-06-14T06:00:04;6.47;;;4.60;;
9496;SDS011;4786;51.270;4.456;2023-06-14T06:02:44;6.88;;;5.47;;
9496;SDS011;4786;51.270;4.456;2023-06-14T06:05:10;6.93;;;5.65;;
9496;SDS011;4786;51.270;4.456;2023-06-14T06:07:37;9.48;;;5.72;;
9496;SDS011;4786;51.270;4.456;2023-06-14T06:10:03;5.13;;;4.57;;
9496;SDS011;4786;51.270;4.456;2023-06-14T06:12:30;6.32;;;5.13;;
9496;SDS011;4786;51.270;4.456;2023-06-14T06:14:56;9.52;;;4.88;;
9496;SDS011;4786;51.270;4.456;2023-06-14T06:17:22;8.07;;;5.28;;
9496;SDS011;4786;51.270;4.456;2023-06-14T06:19:48;5.43;;;4.47;;
9496;SDS011;4786;51.270;4.456;2023-06-14T06:22:14;8.70;;;4.85;;
9496;SDS011;4786;51.270;4.456;2023-06-14T06:24:40;7.85;;;4.68;;
9496;SDS011;4786;51.270;4.456;2023-06-14T06:27:07;7.57;;;4.78;;
9496;SDS011;4786;51.270;4.456;2023-06-14T06:29:37;6.80;;;5.00;;
9496;SDS011;4786;51.270;4.456;2023-06-14T06:32:03;7.68;;;5.15;;
9496;SDS011;4786;51.270;4.456;2023-06-14T06:34:29;11.43;;;5.15;;
9496;SDS011;4786;51.270;4.456;2023-06-14T06:36:56;10.70;;;5.53;;
9496;SDS011;4786;51.270;4.456;2023-06-14T06:39:22;5.90;;;4.70;;
9496;SDS011;4786;51.270;4.456;2023-06-14T06:41:48;9.32;;;5.50;;
9496;SDS011;4786;51.270;4.456;2023-06-14T06:44:14;9.70;;;5.00;;
9496;SDS011;4786;51.270;4.456;2023-06-14T06:46:40;10.45;;;4.95;;
9496;SDS011;4786;51.270;4.456;2023-06-14T06:49:06;7.07;;;4.85;;
9496;SDS011;4786;51.270;4.456;2023-06-14T06:51:34;5.97;;;4.97;;
9496;SDS011;4786;51.270;4.456;2023-06-14T06:54:00;8.68;;;5.15;;
9496;SDS011;4786;51.270;4.456;2023-06-14T06:56:26;6.00;;;5.03;;
9496;SDS011;4786;51.270;4.456;2023-06-14T06:58:52;7.65;;;4.85;;
9496;SDS011;4786;51.270;4.456;2023-06-14T07:01:18;11.02;;;5.25;;
9496;SDS011;4786;51.270;4.456;2023-06-14T07:03:46;7.05;;;4.55;;
9496;SDS011;4786;51.270;4.456;2023-06-14T07:06:12;8.25;;;5.00;;
9496;SDS011;4786;51.270;4.456;2023-06-14T07:08:38;5.85;;;4.90;;
9496;SDS011;4786;51.270;4.456;2023-06-14T07:11:04;4.90;;;4.47;;
9496;SDS011;4786;51.270;4.456;2023-06-14T07:13:31;5.32;;;4.78;;
9496;SDS011;4786;51.270;4.456;2023-06-14T07:15:57;8.30;;;5.45;;
9496;SDS011;4786;51.270;4.456;2023-06-14T07:18:25;8.50;;;4.68;;
9496;SDS011;4786;51.270;4.456;2023-06-14T07:20:51;7.45;;;5.40;;
9496;SDS011;4786;51.270;4.456;2023-06-14T07:23:18;9.02;;;4.70;;
9496;SDS011;4786;51.270;4.456;2023-06-14T07:25:45;10.77;;;4.85;;
9496;SDS011;4786;51.270;4.456;2023-06-14T07:28:12;7.07;;;5.32;;
9496;SDS011;4786;51.270;4.456;2023-06-14T07:30:40;10.18;;;5.35;;
9496;SDS011;4786;51.270;4.456;2023-06-14T07:33:07;8.60;;;4.75;;
9496;SDS011;4786;51.270;4.456;2023-06-14T07:35:34;11.00;;;5.43;;
9496;SDS011;4786;51.270;4.456;2023-06-14T07:38:00;9.35;;;5.15;;
9496;SDS011;4786;51.270;4.456;2023-06-14T07:40:26;10.43;;;4.82;;
9496;SDS011;4786;51.270;4.456;2023-06-14T07:42:52;8.07;;;5.43;;
9496;SDS011;4786;51.270;4.456;2023-06-14T07:45:19;9.63;;;4.78;;
9496;SDS011;4786;51.270;4.456;2023-06-14T07:47:46;6.53;;;5.70;;
9496;SDS011;4786;51.270;4.456;2023-06-14T07:50:12;12.85;;;5.57;;
9496;SDS011;4786;51.270;4.456;2023-06-14T07:52:38;6.65;;;5.70;;
9496;SDS011;4786;51.270;4.456;2023-06-14T07:55:04;6.53;;;4.70;;
9496;SDS011;4786;51.270;4.456;2023-06-14T07:57:30;10.68;;;5.35;;
9496;SDS011;4786;51.270;4.456;2023-06-14T07:59:56;13.93;;;6.05;;
9496;SDS011;4786;51.270;4.456;2023-06-14T08:02:22;11.02;;;5.47;;
9496;SDS011;4786;51.270;4.456;2023-06-14T08:04:48;8.65;;;4.80;;
9496;SDS011;4786;51.270;4.456;2023-06-14T08:07:14;12.05;;;5.85;;
9496;SDS011;4786;51.270;4.456;2023-06-14T08:09:40;7.55;;;5.72;;
9496;SDS011;4786;51.270;4.456;2023-06-14T08:12:06;10.45;;;6.00;;
9496;SDS011;4786;51.270;4.456;2023-06-14T08:14:35;9.27;;;5.30;;
9496;SDS011;4786;51.270;4.456;2023-06-14T08:17:01;7.35;;;5.65;;
9496;SDS011;4786;51.270;4.456;2023-06-14T08:19:26;8.13;;;5.57;;
9496;SDS011;4786;51.270;4.456;2023-06-14T08:21:53;12.10;;;6.18;;
9496;SDS011;4786;51.270;4.456;2023-06-14T08:24:23;11.10;;;6.07;;
9496;SDS011;4786;51.270;4.456;2023-06-14T08:26:55;9.75;;;5.20;;
9496;SDS011;4786;51.270;4.456;2023-06-14T08:29:26;11.82;;;5.35;;
9496;SDS011;4786;51.270;4.456;2023-06-14T08:31:54;11.15;;;5.90;;
9496;SDS011;4786;51.270;4.456;2023-06-14T08:34:20;16.27;;;6.00;;
9496;SDS011;4786;51.270;4.456;2023-06-14T08:36:46;12.15;;;5.35;;
9496;SDS011;4786;51.270;4.456;2023-06-14T08:39:12;7.35;;;5.95;;
9496;SDS011;4786;51.270;4.456;2023-06-14T08:41:38;6.40;;;5.50;;
9496;SDS011;4786;51.270;4.456;2023-06-14T08:44:04;7.47;;;5.97;;
9496;SDS011;4786;51.270;4.456;2023-06-14T08:46:32;9.27;;;5.80;;
9496;SDS011;4786;51.270;4.456;2023-06-14T08:48:59;11.02;;;6.60;;
9496;SDS011;4786;51.270;4.456;2023-06-14T08:51:26;7.00;;;6.30;;
9496;SDS011;4786;51.270;4.456;2023-06-14T08:53:58;9.25;;;5.40;;
9496;SDS011;4786;51.270;4.456;2023-06-14T08:56:26;7.63;;;5.50;;
9496;SDS011;4786;51.270;4.456;2023-06-14T08:58:53;8.82;;;6.00;;
9496;SDS011;4786;51.270;4.456;2023-06-14T09:01:19;8.43;;;5.50;;
9496;SDS011;4786;51.270;4.456;2023-06-14T09:03:46;13.30;;;5.70;;
9496;SDS011;4786;51.270;4.456;2023-06-14T09:06:13;6.53;;;5.07;;
9496;SDS011;4786;51.270;4.456;2023-06-14T09:08:41;9.48;;;5.90;;
9496;SDS011;4786;51.270;4.456;2023-06-14T09:11:10;9.25;;;5.28;;
9496;SDS011;4786;51.270;4.456;2023-06-14T09:13:37;6.53;;;5.22;;
9496;SDS011;4786;51.270;4.456;2023-06-14T09:16:03;12.77;;;5.30;;
9496;SDS011;4786;51.270;4.456;2023-06-14T09:18:45;6.25;;;5.43;;
9496;SDS011;4786;51.270;4.456;2023-06-14T09:21:13;10.75;;;5.50;;
9496;SDS011;4786;51.270;4.456;2023-06-14T09:23:41;8.45;;;5.50;;
9496;SDS011;4786;51.270;4.456;2023-06-14T09:26:12;12.50;;;4.63;;
9496;SDS011;4786;51.270;4.456;2023-06-14T09:28:43;9.77;;;5.35;;
9496;SDS011;4786;51.270;4.456;2023-06-14T09:31:18;9.90;;;5.18;;
9496;SDS011;4786;51.270;4.456;2023-06-14T09:33:45;9.23;;;4.68;;
9496;SDS011;4786;51.270;4.456;2023-06-14T09:36:22;9.98;;;4.85;;
9496;SDS011;4786;51.270;4.456;2023-06-14T09:41:40;8.35;;;4.47;;
9496;SDS011;4786;51.270;4.456;2023-06-14T09:44:08;7.68;;;4.70;;
9496;SDS011;4786;51.270;4.456;2023-06-14T09:46:35;10.30;;;4.68;;
9496;SDS011;4786;51.270;4.456;2023-06-14T09:49:02;6.32;;;4.57;;
9496;SDS011;4786;51.270;4.456;2023-06-14T09:51:29;9.93;;;4.57;;
9496;SDS011;4786;51.270;4.456;2023-06-14T09:53:58;9.05;;;4.70;;
9496;SDS011;4786;51.270;4.456;2023-06-14T09:56:26;9.10;;;4.30;;
9496;SDS011;4786;51.270;4.456;2023-06-14T09:58:55;8.48;;;4.78;;
9496;SDS011;4786;51.270;4.456;2023-06-14T10:01:26;10.02;;;4.32;;
9496;SDS011;4786;51.270;4.456;2023-06-14T10:03:55;6.25;;;4.07;;
9496;SDS011;4786;51.270;4.456;2023-06-14T10:06:26;6.78;;;4.18;;
9496;SDS011;4786;51.270;4.456;2023-06-14T10:08:56;6.50;;;4.43;;
9496;SDS011;4786;51.270;4.456;2023-06-14T10:11:23;5.97;;;4.40;;
9496;SDS011;4786;51.270;4.456;2023-06-14T10:13:50;5.90;;;4.30;;
9496;SDS011;4786;51.270;4.456;2023-06-14T10:16:19;6.25;;;4.00;;
9496;SDS011;4786;51.270;4.456;2023-06-14T10:24:23;7.18;;;4.18;;
9496;SDS011;4786;51.270;4.456;2023-06-14T10:26:56;7.90;;;4.25;;
9496;SDS011;4786;51.270;4.456;2023-06-14T10:29:23;5.78;;;4.28;;
9496;SDS011;4786;51.270;4.456;2023-06-14T10:31:50;9.45;;;3.85;;
9496;SDS011;4786;51.270;4.456;2023-06-14T10:34:29;8.23;;;3.97;;
9496;SDS011;4786;51.270;4.456;2023-06-14T10:37:00;6.45;;;3.65;;
9496;SDS011;4786;51.270;4.456;2023-06-14T10:39:41;6.18;;;4.13;;
9496;SDS011;4786;51.270;4.456;2023-06-14T10:42:09;6.63;;;4.03;;
9496;SDS011;4786;51.270;4.456;2023-06-14T10:44:39;6.38;;;4.00;;
9496;SDS011;4786;51.270;4.456;2023-06-14T10:50:09;9.02;;;3.63;;
9496;SDS011;4786;51.270;4.456;2023-06-14T10:52:41;7.93;;;3.88;;
9496;SDS011;4786;51.270;4.456;2023-06-14T10:55:11;6.65;;;3.78;;
9496;SDS011;4786;51.270;4.456;2023-06-14T10:57:45;4.50;;;3.45;;
9496;SDS011;4786;51.270;4.456;2023-06-14T11:00:13;9.18;;;3.67;;
9496;SDS011;4786;51.270;4.456;2023-06-14T11:05:24;5.78;;;4.00;;
9496;SDS011;4786;51.270;4.456;2023-06-14T11:10:41;5.97;;;3.70;;
9496;SDS011;4786;51.270;4.456;2023-06-14T11:13:10;7.57;;;3.40;;
9496;SDS011;4786;51.270;4.456;2023-06-14T11:15:37;10.07;;;3.60;;
9496;SDS011;4786;51.270;4.456;2023-06-14T11:18:05;7.68;;;3.53;;
9496;SDS011;4786;51.270;4.456;2023-06-14T11:20:32;6.28;;;3.60;;
9496;SDS011;4786;51.270;4.456;2023-06-14T11:22:59;7.85;;;3.38;;
9496;SDS011;4786;51.270;4.456;2023-06-14T11:25:26;6.93;;;3.67;;
9496;SDS011;4786;51.270;4.456;2023-06-14T11:27:55;7.82;;;3.55;;
9496;SDS011;4786;51.270;4.456;2023-06-14T11:30:21;8.38;;;4.20;;
9496;SDS011;4786;51.270;4.456;2023-06-14T11:32:48;5.20;;;3.63;;
9496;SDS011;4786;51.270;4.456;2023-06-14T11:35:17;6.50;;;3.75;;
9496;SDS011;4786;51.270;4.456;2023-06-14T11:37:43;6.72;;;3.78;;
9496;SDS011;4786;51.270;4.456;2023-06-14T11:40:10;8.85;;;3.50;;
9496;SDS011;4786;51.270;4.456;2023-06-14T11:42:38;8.05;;;3.38;;
9496;SDS011;4786;51.270;4.456;2023-06-14T11:45:09;4.20;;;3.55;;
9496;SDS011;4786;51.270;4.456;2023-06-14T11:47:37;9.25;;;3.35;;
9496;SDS011;4786;51.270;4.456;2023-06-14T11:50:04;7.15;;;3.25;;
9496;SDS011;4786;51.270;4.456;2023-06-14T11:52:31;6.68;;;3.25;;
9496;SDS011;4786;51.270;4.456;2023-06-14T11:54:58;7.13;;;3.45;;
9496;SDS011;4786;51.270;4.456;2023-06-14T11:57:24;5.22;;;3.10;;
9496;SDS011;4786;51.270;4.456;2023-06-14T11:59:51;3.42;;;3.10;;
9496;SDS011;4786;51.270;4.456;2023-06-14T12:02:17;5.30;;;3.33;;
9496;SDS011;4786;51.270;4.456;2023-06-14T12:04:46;9.65;;;3.33;;
9496;SDS011;4786;51.270;4.456;2023-06-14T12:07:32;3.90;;;3.20;;
9496;SDS011;4786;51.270;4.456;2023-06-14T12:12:24;4.90;;;3.45;;
9496;SDS011;4786;51.270;4.456;2023-06-14T12:14:51;5.45;;;3.03;;
9496;SDS011;4786;51.270;4.456;2023-06-14T12:17:18;7.75;;;3.10;;
9496;SDS011;4786;51.270;4.456;2023-06-14T12:19:45;3.45;;;2.65;;
9496;SDS011;4786;51.270;4.456;2023-06-14T12:22:14;9.75;;;3.00;;
9496;SDS011;4786;51.270;4.456;2023-06-14T12:24:43;4.85;;;2.78;;
9496;SDS011;4786;51.270;4.456;2023-06-14T12:27:10;6.05;;;3.03;;
9496;SDS011;4786;51.270;4.456;2023-06-14T12:29:40;4.15;;;2.72;;
9496;SDS011;4786;51.270;4.456;2023-06-14T12:32:09;4.43;;;2.92;;
9496;SDS011;4786;51.270;4.456;2023-06-14T12:34:35;5.20;;;2.50;;
9496;SDS011;4786;51.270;4.456;2023-06-14T12:37:02;3.00;;;2.70;;
9496;SDS011;4786;51.270;4.456;2023-06-14T12:39:29;3.60;;;2.45;;
9496;SDS011;4786;51.270;4.456;2023-06-14T12:41:56;3.97;;;2.40;;
9496;SDS011;4786;51.270;4.456;2023-06-14T12:44:23;6.45;;;2.72;;
9496;SDS011;4786;51.270;4.456;2023-06-14T12:46:49;8.35;;;2.70;;
9496;SDS011;4786;51.270;4.456;2023-06-14T12:49:18;5.82;;;2.40;;
9496;SDS011;4786;51.270;4.456;2023-06-14T12:51:45;3.85;;;2.20;;
9496;SDS011;4786;51.270;4.456;2023-06-14T12:54:10;5.03;;;2.17;;
9496;SDS011;4786;51.270;4.456;2023-06-14T12:56:37;10.98;;;2.55;;
9496;SDS011;4786;51.270;4.456;2023-06-14T12:59:03;3.58;;;1.90;;
9496;SDS011;4786;51.270;4.456;2023-06-14T13:01:28;4.22;;;2.33;;
9496;SDS011;4786;51.270;4.456;2023-06-14T13:03:54;3.00;;;1.70;;
9496;SDS011;4786;51.270;4.456;2023-06-14T13:06:20;3.25;;;1.90;;
9496;SDS011;4786;51.270;4.456;2023-06-14T13:08:47;2.58;;;1.98;;
9496;SDS011;4786;51.270;4.456;2023-06-14T13:11:14;2.63;;;1.80;;
9496;SDS011;4786;51.270;4.456;2023-06-14T13:13:40;3.88;;;2.15;;
9496;SDS011;4786;51.270;4.456;2023-06-14T13:16:05;3.17;;;2.05;;
9496;SDS011;4786;51.270;4.456;2023-06-14T13:18:31;3.97;;;2.15;;
9496;SDS011;4786;51.270;4.456;2023-06-14T13:20:58;3.05;;;1.77;;
9496;SDS011;4786;51.270;4.456;2023-06-14T13:23:24;3.88;;;1.80;;
9496;SDS011;4786;51.270;4.456;2023-06-14T13:25:50;2.75;;;1.70;;
9496;SDS011;4786;51.270;4.456;2023-06-14T13:28:16;2.33;;;1.70;;
9496;SDS011;4786;51.270;4.456;2023-06-14T13:30:42;3.47;;;1.80;;
9496;SDS011;4786;51.270;4.456;2023-06-14T13:33:08;2.90;;;1.95;;
9496;SDS011;4786;51.270;4.456;2023-06-14T13:35:34;2.05;;;1.85;;
9496;SDS011;4786;51.270;4.456;2023-06-14T13:38:00;2.40;;;1.80;;
9496;SDS011;4786;51.270;4.456;2023-06-14T13:40:26;3.42;;;1.80;;
9496;SDS011;4786;51.270;4.456;2023-06-14T13:42:52;4.15;;;2.00;;
9496;SDS011;4786;51.270;4.456;2023-06-14T13:45:18;3.05;;;2.08;;
9496;SDS011;4786;51.270;4.456;2023-06-14T13:47:44;8.57;;;2.00;;
9496;SDS011;4786;51.270;4.456;2023-06-14T13:50:13;2.83;;;1.90;;
9496;SDS011;4786;51.270;4.456;2023-06-14T13:52:40;3.42;;;2.22;;
9496;SDS011;4786;51.270;4.456;2023-06-14T13:55:05;2.30;;;2.10;;
9496;SDS011;4786;51.270;4.456;2023-06-14T13:57:32;6.00;;;2.00;;
9496;SDS011;4786;51.270;4.456;2023-06-14T13:59:58;3.03;;;2.05;;
9496;SDS011;4786;51.270;4.456;2023-06-14T14:02:26;4.22;;;2.22;;
9496;SDS011;4786;51.270;4.456;2023-06-14T14:04:54;2.60;;;2.20;;
9496;SDS011;4786;51.270;4.456;2023-06-14T14:07:20;4.68;;;2.17;;
9496;SDS011;4786;51.270;4.456;2023-06-14T14:09:47;3.72;;;2.28;;
9496;SDS011;4786;51.270;4.456;2023-06-14T14:12:13;5.03;;;2.28;;
9496;SDS011;4786;51.270;4.456;2023-06-14T14:14:39;4.70;;;2.20;;
9496;SDS011;4786;51.270;4.456;2023-06-14T14:17:05;4.35;;;2.40;;
9496;SDS011;4786;51.270;4.456;2023-06-14T14:19:32;2.78;;;2.30;;
9496;SDS011;4786;51.270;4.456;2023-06-14T14:21:58;2.60;;;2.40;;
9496;SDS011;4786;51.270;4.456;2023-06-14T14:24:24;3.75;;;1.98;;
9496;SDS011;4786;51.270;4.456;2023-06-14T14:26:51;2.88;;;2.40;;
9496;SDS011;4786;51.270;4.456;2023-06-14T14:29:18;3.65;;;2.10;;
9496;SDS011;4786;51.270;4.456;2023-06-14T14:31:45;2.45;;;2.25;;
9496;SDS011;4786;51.270;4.456;2023-06-14T14:34:11;4.68;;;2.33;;
9496;SDS011;4786;51.270;4.456;2023-06-14T14:36:37;6.53;;;2.45;;
9496;SDS011;4786;51.270;4.456;2023-06-14T14:39:06;4.32;;;2.10;;
9496;SDS011;4786;51.270;4.456;2023-06-14T14:41:32;3.45;;;2.00;;
9496;SDS011;4786;51.270;4.456;2023-06-14T14:43:58;3.45;;;2.30;;
9496;SDS011;4786;51.270;4.456;2023-06-14T14:46:25;3.58;;;2.13;;
9496;SDS011;4786;51.270;4.456;2023-06-14T14:48:52;2.67;;;2.25;;
9496;SDS011;4786;51.270;4.456;2023-06-14T14:51:18;2.40;;;2.20;;
9496;SDS011;4786;51.270;4.456;2023-06-14T14:53:44;5.50;;;2.50;;
9496;SDS011;4786;51.270;4.456;2023-06-14T14:56:10;3.97;;;2.13;;
9496;SDS011;4786;51.270;4.456;2023-06-14T14:58:37;3.45;;;2.10;;
9496;SDS011;4786;51.270;4.456;2023-06-14T15:01:03;3.30;;;2.33;;
9496;SDS011;4786;51.270;4.456;2023-06-14T15:03:30;3.10;;;2.10;;
9496;SDS011;4786;51.270;4.456;2023-06-14T15:05:56;6.70;;;2.47;;
9496;SDS011;4786;51.270;4.456;2023-06-14T15:08:22;2.75;;;2.28;;
9496;SDS011;4786;51.270;4.456;2023-06-14T15:10:48;3.08;;;2.30;;
9496;SDS011;4786;51.270;4.456;2023-06-14T15:13:14;3.22;;;2.25;;
9496;SDS011;4786;51.270;4.456;2023-06-14T15:15:39;2.50;;;1.98;;
9496;SDS011;4786;51.270;4.456;2023-06-14T15:18:05;2.42;;;2.05;;
9496;SDS011;4786;51.270;4.456;2023-06-14T15:20:31;4.85;;;2.00;;
9496;SDS011;4786;51.270;4.456;2023-06-14T15:22:57;4.63;;;1.80;;
9496;SDS011;4786;51.270;4.456;2023-06-14T15:25:27;6.78;;;1.98;;
9496;SDS011;4786;51.270;4.456;2023-06-14T15:27:54;5.57;;;2.08;;
9496;SDS011;4786;51.270;4.456;2023-06-14T15:30:21;3.38;;;1.90;;
9496;SDS011;4786;51.270;4.456;2023-06-14T15:32:47;3.90;;;2.30;;
9496;SDS011;4786;51.270;4.456;2023-06-14T15:35:14;5.22;;;1.95;;
9496;SDS011;4786;51.270;4.456;2023-06-14T15:37:42;3.03;;;2.05;;
9496;SDS011;4786;51.270;4.456;2023-06-14T15:40:08;3.78;;;2.10;;